Biltine Airport


Codes: FTTE/
Name: Biltine Airport
City: Biltine
Country: Chad
Elevation: 1680 ft.

Photos at Biltine Airport


   Photos courtesy of SpottingLog. You can add your own sightings and photos by signing up for a free trial today.



No photos found.

Weather at Biltine Airport


Time (UTC)DescriptionTempratureWindCloud coverageVisibilityPressureHumidity
19-Apr-2024 06:00Scattered Clouds30°C9 mph, E49%10000m1006hPa9%
19-Apr-2024 09:00Broken Clouds38°C18 mph, SE53%10000m1006hPa6%
19-Apr-2024 12:00Scattered Clouds44°C9 mph, S39%10000m1003hPa4%
19-Apr-2024 15:00Clear Sky43°C9 mph, SW9%10000m1001hPa5%
19-Apr-2024 18:00Scattered Clouds38°C9 mph, SW38%10000m1002hPa7%
19-Apr-2024 21:00Scattered Clouds34°C2 mph, N34%10000m1003hPa9%
20-Apr-2024 00:00Few Clouds31°C2 mph, SE19%10000m1003hPa10%
20-Apr-2024 03:00Scattered Clouds30°C7 mph, S27%10000m1003hPa11%
20-Apr-2024 06:00Scattered Clouds32°C4 mph, SE50%10000m1005hPa9%
20-Apr-2024 09:00Overcast Clouds39°C7 mph, S100%10000m1005hPa6%
20-Apr-2024 12:00Broken Clouds43°C7 mph, SW74%10000m1002hPa5%
20-Apr-2024 15:00Clear Sky43°C4 mph, NW8%10000m1000hPa5%
20-Apr-2024 18:00Clear Sky37°C4 mph, N6%10000m1001hPa7%
20-Apr-2024 21:00Clear Sky33°C4 mph, S6%10000m1003hPa11%
21-Apr-2024 00:00Few Clouds32°C7 mph, NW11%10000m1003hPa12%
21-Apr-2024 03:00Few Clouds31°C9 mph, NE14%10000m1003hPa11%
21-Apr-2024 06:00Few Clouds33°C7 mph, NE21%10000m1005hPa11%
21-Apr-2024 09:00Broken Clouds40°C2 mph, SE59%10000m1004hPa7%
21-Apr-2024 12:00Scattered Clouds43°C2 mph, W36%10000m1001hPa5%
21-Apr-2024 15:00Clear Sky43°C7 mph, W3%10000m1000hPa5%
21-Apr-2024 18:00Scattered Clouds38°C9 mph, S30%10000m1002hPa9%
21-Apr-2024 21:00Clear Sky35°C7 mph, S2%10000m1003hPa12%
22-Apr-2024 00:00Clear Sky33°C9 mph, NW3%10000m1002hPa13%
22-Apr-2024 03:00Clear Sky32°C7 mph, SE7%10000m1004hPa13%
22-Apr-2024 06:00Scattered Clouds34°C11 mph, S32%10000m1006hPa13%
22-Apr-2024 09:00Few Clouds41°C18 mph, S11%10000m1006hPa12%
22-Apr-2024 12:00Clear Sky43°C11 mph, S8%10000m1003hPa9%
22-Apr-2024 15:00Scattered Clouds42°C7 mph, E35%10000m1001hPa10%
22-Apr-2024 18:00Broken Clouds39°C11 mph, NE63%10000m1003hPa12%
22-Apr-2024 21:00Broken Clouds36°C4 mph, SE54%10000m1005hPa15%
23-Apr-2024 00:00Broken Clouds33°C9 mph, E68%10000m1004hPa10%
23-Apr-2024 03:00Broken Clouds31°C9 mph, E65%10000m1005hPa11%
23-Apr-2024 06:00Broken Clouds35°C9 mph, SE70%10000m1006hPa9%
23-Apr-2024 09:00Scattered Clouds42°C16 mph, SE48%10000m1006hPa6%
23-Apr-2024 12:00Scattered Clouds44°C7 mph, S30%10000m1003hPa6%
23-Apr-2024 15:00Clear Sky44°C2 mph, SW0%10000m1001hPa6%
23-Apr-2024 18:00Clear Sky37°C7 mph, NE3%10000m1002hPa8%
23-Apr-2024 21:00Clear Sky33°C2 mph, SE1%10000m1004hPa11%
24-Apr-2024 00:00Clear Sky31°C2 mph, E1%10000m1002hPa11%
24-Apr-2024 03:00Broken Clouds30°C2 mph, E60%10000m1004hPa10%